sensor_id;sensor_type;location;lat;lon;timestamp;P1;durP1;ratioP1;P2;durP2;ratioP2
26756;SDS011;23848;49.798;10.228;2024-03-08T00:00:32;18.85;;;10.65;;
26756;SDS011;23848;49.798;10.228;2024-03-08T00:03:02;20.33;;;11.00;;
26756;SDS011;23848;49.798;10.228;2024-03-08T00:05:31;20.00;;;10.32;;
26756;SDS011;23848;49.798;10.228;2024-03-08T00:07:59;20.98;;;10.95;;
26756;SDS011;23848;49.798;10.228;2024-03-08T00:10:30;16.63;;;9.77;;
26756;SDS011;23848;49.798;10.228;2024-03-08T00:12:59;15.60;;;9.13;;
26756;SDS011;23848;49.798;10.228;2024-03-08T00:15:28;18.13;;;10.07;;
26756;SDS011;23848;49.798;10.228;2024-03-08T00:17:58;18.33;;;9.25;;
26756;SDS011;23848;49.798;10.228;2024-03-08T00:20:28;16.63;;;10.20;;
26756;SDS011;23848;49.798;10.228;2024-03-08T00:22:57;20.10;;;9.00;;
26756;SDS011;23848;49.798;10.228;2024-03-08T00:25:25;19.05;;;10.98;;
26756;SDS011;23848;49.798;10.228;2024-03-08T00:27:54;17.15;;;10.02;;
26756;SDS011;23848;49.798;10.228;2024-03-08T00:30:22;20.30;;;11.88;;
26756;SDS011;23848;49.798;10.228;2024-03-08T00:32:53;18.55;;;9.93;;
26756;SDS011;23848;49.798;10.228;2024-03-08T00:35:22;18.85;;;9.48;;
26756;SDS011;23848;49.798;10.228;2024-03-08T00:37:52;15.68;;;9.45;;
26756;SDS011;23848;49.798;10.228;2024-03-08T00:40:22;19.63;;;9.98;;
26756;SDS011;23848;49.798;10.228;2024-03-08T00:42:51;17.60;;;10.43;;
26756;SDS011;23848;49.798;10.228;2024-03-08T00:45:20;18.52;;;9.32;;
26756;SDS011;23848;49.798;10.228;2024-03-08T00:47:50;16.13;;;9.43;;
26756;SDS011;23848;49.798;10.228;2024-03-08T00:50:19;16.27;;;8.75;;
26756;SDS011;23848;49.798;10.228;2024-03-08T00:52:47;17.00;;;8.75;;
26756;SDS011;23848;49.798;10.228;2024-03-08T00:55:17;14.85;;;9.02;;
26756;SDS011;23848;49.798;10.228;2024-03-08T00:57:46;17.58;;;8.45;;
26756;SDS011;23848;49.798;10.228;2024-03-08T01:00:14;15.00;;;9.35;;
26756;SDS011;23848;49.798;10.228;2024-03-08T01:02:43;21.38;;;10.27;;
26756;SDS011;23848;49.798;10.228;2024-03-08T01:05:12;17.00;;;9.27;;
26756;SDS011;23848;49.798;10.228;2024-03-08T01:07:43;17.00;;;10.63;;
26756;SDS011;23848;49.798;10.228;2024-03-08T01:10:12;18.05;;;9.23;;
26756;SDS011;23848;49.798;10.228;2024-03-08T01:12:44;15.70;;;9.25;;
26756;SDS011;23848;49.798;10.228;2024-03-08T01:15:12;18.10;;;10.40;;
26756;SDS011;23848;49.798;10.228;2024-03-08T01:17:41;17.70;;;9.98;;
26756;SDS011;23848;49.798;10.228;2024-03-08T01:20:10;17.35;;;9.75;;
26756;SDS011;23848;49.798;10.228;2024-03-08T01:22:40;17.42;;;9.50;;
26756;SDS011;23848;49.798;10.228;2024-03-08T01:25:08;18.38;;;8.95;;
26756;SDS011;23848;49.798;10.228;2024-03-08T01:27:37;18.42;;;9.95;;
26756;SDS011;23848;49.798;10.228;2024-03-08T01:30:07;20.73;;;10.60;;
26756;SDS011;23848;49.798;10.228;2024-03-08T01:32:37;18.63;;;8.88;;
26756;SDS011;23848;49.798;10.228;2024-03-08T01:35:06;15.15;;;8.23;;
26756;SDS011;23848;49.798;10.228;2024-03-08T01:37:36;20.00;;;9.32;;
26756;SDS011;23848;49.798;10.228;2024-03-08T01:40:04;19.85;;;10.63;;
26756;SDS011;23848;49.798;10.228;2024-03-08T01:42:33;19.02;;;9.60;;
26756;SDS011;23848;49.798;10.228;2024-03-08T01:45:04;18.17;;;9.68;;
26756;SDS011;23848;49.798;10.228;2024-03-08T01:47:34;20.33;;;9.65;;
26756;SDS011;23848;49.798;10.228;2024-03-08T01:50:03;20.13;;;10.18;;
26756;SDS011;23848;49.798;10.228;2024-03-08T01:52:33;16.60;;;9.07;;
26756;SDS011;23848;49.798;10.228;2024-03-08T01:55:04;17.20;;;9.68;;
26756;SDS011;23848;49.798;10.228;2024-03-08T01:57:34;18.02;;;9.20;;
26756;SDS011;23848;49.798;10.228;2024-03-08T02:00:05;20.77;;;9.82;;
26756;SDS011;23848;49.798;10.228;2024-03-08T02:02:38;21.92;;;10.55;;
26756;SDS011;23848;49.798;10.228;2024-03-08T02:05:08;17.48;;;8.95;;
26756;SDS011;23848;49.798;10.228;2024-03-08T02:07:36;19.00;;;10.00;;
26756;SDS011;23848;49.798;10.228;2024-03-08T02:10:06;18.20;;;9.52;;
26756;SDS011;23848;49.798;10.228;2024-03-08T02:12:35;16.88;;;10.07;;
26756;SDS011;23848;49.798;10.228;2024-03-08T02:15:04;21.92;;;11.70;;
26756;SDS011;23848;49.798;10.228;2024-03-08T02:17:34;20.75;;;9.85;;
26756;SDS011;23848;49.798;10.228;2024-03-08T02:20:04;19.88;;;9.27;;
26756;SDS011;23848;49.798;10.228;2024-03-08T02:22:37;18.40;;;9.52;;
26756;SDS011;23848;49.798;10.228;2024-03-08T02:25:06;24.05;;;10.32;;
26756;SDS011;23848;49.798;10.228;2024-03-08T02:27:35;17.02;;;9.88;;
26756;SDS011;23848;49.798;10.228;2024-03-08T02:30:04;18.23;;;10.25;;
26756;SDS011;23848;49.798;10.228;2024-03-08T02:32:33;21.83;;;10.02;;
26756;SDS011;23848;49.798;10.228;2024-03-08T02:35:02;21.75;;;11.05;;
26756;SDS011;23848;49.798;10.228;2024-03-08T02:37:32;22.73;;;11.70;;
26756;SDS011;23848;49.798;10.228;2024-03-08T02:40:02;21.25;;;10.07;;
26756;SDS011;23848;49.798;10.228;2024-03-08T02:42:31;19.23;;;9.50;;
26756;SDS011;23848;49.798;10.228;2024-03-08T02:45:00;21.60;;;11.65;;
26756;SDS011;23848;49.798;10.228;2024-03-08T02:47:28;17.73;;;8.82;;
26756;SDS011;23848;49.798;10.228;2024-03-08T02:49:58;23.83;;;10.20;;
26756;SDS011;23848;49.798;10.228;2024-03-08T02:52:27;18.40;;;9.85;;
26756;SDS011;23848;49.798;10.228;2024-03-08T02:54:57;23.30;;;11.30;;
26756;SDS011;23848;49.798;10.228;2024-03-08T02:57:27;23.25;;;10.90;;
26756;SDS011;23848;49.798;10.228;2024-03-08T02:59:55;20.85;;;10.32;;
26756;SDS011;23848;49.798;10.228;2024-03-08T03:02:26;21.02;;;10.82;;
26756;SDS011;23848;49.798;10.228;2024-03-08T03:04:54;20.27;;;10.07;;
26756;SDS011;23848;49.798;10.228;2024-03-08T03:07:23;19.13;;;11.18;;
26756;SDS011;23848;49.798;10.228;2024-03-08T03:09:53;22.25;;;11.77;;
26756;SDS011;23848;49.798;10.228;2024-03-08T03:12:22;17.80;;;9.93;;
26756;SDS011;23848;49.798;10.228;2024-03-08T03:14:52;20.92;;;10.90;;
26756;SDS011;23848;49.798;10.228;2024-03-08T03:17:20;18.73;;;10.65;;
26756;SDS011;23848;49.798;10.228;2024-03-08T03:19:49;21.08;;;11.75;;
26756;SDS011;23848;49.798;10.228;2024-03-08T03:22:21;23.92;;;11.82;;
26756;SDS011;23848;49.798;10.228;2024-03-08T03:24:51;21.15;;;10.15;;
26756;SDS011;23848;49.798;10.228;2024-03-08T03:27:20;20.67;;;10.10;;
26756;SDS011;23848;49.798;10.228;2024-03-08T03:29:48;19.50;;;10.98;;
26756;SDS011;23848;49.798;10.228;2024-03-08T03:32:19;20.25;;;10.98;;
26756;SDS011;23848;49.798;10.228;2024-03-08T03:34:48;22.73;;;11.77;;
26756;SDS011;23848;49.798;10.228;2024-03-08T03:37:19;22.15;;;11.27;;
26756;SDS011;23848;49.798;10.228;2024-03-08T03:39:47;20.90;;;10.68;;
26756;SDS011;23848;49.798;10.228;2024-03-08T03:42:18;17.70;;;10.95;;
26756;SDS011;23848;49.798;10.228;2024-03-08T03:44:46;21.08;;;11.02;;
26756;SDS011;23848;49.798;10.228;2024-03-08T03:47:15;23.13;;;11.75;;
26756;SDS011;23848;49.798;10.228;2024-03-08T03:49:45;20.75;;;12.73;;
26756;SDS011;23848;49.798;10.228;2024-03-08T03:52:13;19.95;;;10.65;;
26756;SDS011;23848;49.798;10.228;2024-03-08T03:54:42;21.65;;;10.40;;
26756;SDS011;23848;49.798;10.228;2024-03-08T03:57:10;20.70;;;10.75;;
26756;SDS011;23848;49.798;10.228;2024-03-08T03:59:40;22.27;;;11.30;;
26756;SDS011;23848;49.798;10.228;2024-03-08T04:02:08;23.02;;;12.10;;
26756;SDS011;23848;49.798;10.228;2024-03-08T04:04:37;21.17;;;11.10;;
26756;SDS011;23848;49.798;10.228;2024-03-08T04:07:07;23.70;;;11.57;;
26756;SDS011;23848;49.798;10.228;2024-03-08T04:09:36;18.92;;;10.50;;
26756;SDS011;23848;49.798;10.228;2024-03-08T04:12:04;17.40;;;9.82;;
26756;SDS011;23848;49.798;10.228;2024-03-08T04:14:33;20.95;;;11.18;;
26756;SDS011;23848;49.798;10.228;2024-03-08T04:17:02;21.30;;;11.50;;
26756;SDS011;23848;49.798;10.228;2024-03-08T04:19:31;18.17;;;10.75;;
26756;SDS011;23848;49.798;10.228;2024-03-08T04:22:00;22.70;;;11.52;;
26756;SDS011;23848;49.798;10.228;2024-03-08T04:24:30;23.95;;;12.60;;
26756;SDS011;23848;49.798;10.228;2024-03-08T04:26:59;20.90;;;10.55;;
26756;SDS011;23848;49.798;10.228;2024-03-08T04:29:27;17.70;;;9.82;;
26756;SDS011;23848;49.798;10.228;2024-03-08T04:31:56;22.35;;;10.70;;
26756;SDS011;23848;49.798;10.228;2024-03-08T04:34:24;20.48;;;11.23;;
26756;SDS011;23848;49.798;10.228;2024-03-08T04:36:56;19.30;;;10.57;;
26756;SDS011;23848;49.798;10.228;2024-03-08T04:39:25;22.45;;;11.20;;
26756;SDS011;23848;49.798;10.228;2024-03-08T04:41:55;21.88;;;11.52;;
26756;SDS011;23848;49.798;10.228;2024-03-08T04:44:27;24.27;;;12.95;;
26756;SDS011;23848;49.798;10.228;2024-03-08T04:46:56;24.80;;;12.43;;
26756;SDS011;23848;49.798;10.228;2024-03-08T04:49:24;20.10;;;11.45;;
26756;SDS011;23848;49.798;10.228;2024-03-08T04:51:54;24.95;;;12.43;;
26756;SDS011;23848;49.798;10.228;2024-03-08T04:54:22;22.67;;;10.82;;
26756;SDS011;23848;49.798;10.228;2024-03-08T04:56:50;19.88;;;10.95;;
26756;SDS011;23848;49.798;10.228;2024-03-08T04:59:21;20.17;;;12.02;;
26756;SDS011;23848;49.798;10.228;2024-03-08T05:01:50;20.23;;;12.25;;
26756;SDS011;23848;49.798;10.228;2024-03-08T05:04:18;23.25;;;10.90;;
26756;SDS011;23848;49.798;10.228;2024-03-08T05:06:46;23.13;;;12.23;;
26756;SDS011;23848;49.798;10.228;2024-03-08T05:09:15;25.58;;;13.82;;
26756;SDS011;23848;49.798;10.228;2024-03-08T05:11:45;26.42;;;13.52;;
26756;SDS011;23848;49.798;10.228;2024-03-08T05:14:14;28.67;;;14.60;;
26756;SDS011;23848;49.798;10.228;2024-03-08T05:16:45;30.08;;;14.30;;
26756;SDS011;23848;49.798;10.228;2024-03-08T05:19:15;30.85;;;14.93;;
26756;SDS011;23848;49.798;10.228;2024-03-08T05:21:44;32.28;;;14.98;;
26756;SDS011;23848;49.798;10.228;2024-03-08T05:24:13;23.23;;;12.57;;
26756;SDS011;23848;49.798;10.228;2024-03-08T05:26:43;22.55;;;10.15;;
26756;SDS011;23848;49.798;10.228;2024-03-08T05:29:12;19.45;;;11.07;;
26756;SDS011;23848;49.798;10.228;2024-03-08T05:31:43;22.13;;;11.45;;
26756;SDS011;23848;49.798;10.228;2024-03-08T05:34:15;21.20;;;11.23;;
26756;SDS011;23848;49.798;10.228;2024-03-08T05:36:44;20.60;;;12.02;;
26756;SDS011;23848;49.798;10.228;2024-03-08T05:39:13;23.98;;;11.68;;
26756;SDS011;23848;49.798;10.228;2024-03-08T05:41:41;21.08;;;12.32;;
26756;SDS011;23848;49.798;10.228;2024-03-08T05:44:10;23.60;;;12.43;;
26756;SDS011;23848;49.798;10.228;2024-03-08T05:46:39;22.45;;;11.95;;
26756;SDS011;23848;49.798;10.228;2024-03-08T05:49:08;22.58;;;11.13;;
26756;SDS011;23848;49.798;10.228;2024-03-08T05:51:40;22.23;;;12.32;;
26756;SDS011;23848;49.798;10.228;2024-03-08T05:54:10;22.15;;;12.70;;
26756;SDS011;23848;49.798;10.228;2024-03-08T05:59:11;21.38;;;12.43;;
26756;SDS011;23848;49.798;10.228;2024-03-08T06:01:40;22.85;;;12.60;;
26756;SDS011;23848;49.798;10.228;2024-03-08T06:04:09;25.58;;;12.23;;
26756;SDS011;23848;49.798;10.228;2024-03-08T06:06:40;25.00;;;12.52;;
26756;SDS011;23848;49.798;10.228;2024-03-08T06:09:08;29.50;;;13.63;;
26756;SDS011;23848;49.798;10.228;2024-03-08T06:11:39;25.75;;;12.15;;
26756;SDS011;23848;49.798;10.228;2024-03-08T06:14:09;23.08;;;11.85;;
26756;SDS011;23848;49.798;10.228;2024-03-08T06:16:40;24.23;;;12.25;;
26756;SDS011;23848;49.798;10.228;2024-03-08T06:19:10;25.00;;;12.85;;
26756;SDS011;23848;49.798;10.228;2024-03-08T06:21:42;27.77;;;14.23;;
26756;SDS011;23848;49.798;10.228;2024-03-08T06:24:15;24.90;;;12.85;;
26756;SDS011;23848;49.798;10.228;2024-03-08T06:26:46;28.38;;;14.80;;
26756;SDS011;23848;49.798;10.228;2024-03-08T06:29:23;28.40;;;16.70;;
26756;SDS011;23848;49.798;10.228;2024-03-08T06:31:53;24.98;;;12.23;;
26756;SDS011;23848;49.798;10.228;2024-03-08T06:34:24;26.92;;;15.20;;
26756;SDS011;23848;49.798;10.228;2024-03-08T06:37:04;29.30;;;15.25;;
26756;SDS011;23848;49.798;10.228;2024-03-08T06:39:41;30.23;;;16.92;;
26756;SDS011;23848;49.798;10.228;2024-03-08T06:42:12;26.70;;;14.52;;
26756;SDS011;23848;49.798;10.228;2024-03-08T06:44:41;23.27;;;13.15;;
26756;SDS011;23848;49.798;10.228;2024-03-08T06:47:17;22.88;;;14.07;;
26756;SDS011;23848;49.798;10.228;2024-03-08T06:49:51;20.10;;;10.85;;
26756;SDS011;23848;49.798;10.228;2024-03-08T06:52:24;24.35;;;12.88;;
26756;SDS011;23848;49.798;10.228;2024-03-08T06:55:18;23.55;;;12.95;;
26756;SDS011;23848;49.798;10.228;2024-03-08T06:57:53;22.02;;;12.52;;
26756;SDS011;23848;49.798;10.228;2024-03-08T07:00:22;22.00;;;11.48;;
26756;SDS011;23848;49.798;10.228;2024-03-08T07:02:55;23.02;;;13.20;;
26756;SDS011;23848;49.798;10.228;2024-03-08T07:05:27;23.85;;;14.73;;
26756;SDS011;23848;49.798;10.228;2024-03-08T07:07:59;28.02;;;13.55;;
26756;SDS011;23848;49.798;10.228;2024-03-08T07:10:44;26.67;;;14.20;;
26756;SDS011;23848;49.798;10.228;2024-03-08T07:13:14;26.65;;;14.80;;
26756;SDS011;23848;49.798;10.228;2024-03-08T07:16:00;29.23;;;13.77;;
26756;SDS011;23848;49.798;10.228;2024-03-08T07:18:28;28.50;;;14.77;;
26756;SDS011;23848;49.798;10.228;2024-03-08T07:21:03;26.45;;;14.20;;
26756;SDS011;23848;49.798;10.228;2024-03-08T07:23:37;28.70;;;15.98;;
26756;SDS011;23848;49.798;10.228;2024-03-08T07:26:31;27.25;;;14.35;;
26756;SDS011;23848;49.798;10.228;2024-03-08T07:29:18;26.90;;;14.85;;
26756;SDS011;23848;49.798;10.228;2024-03-08T07:31:47;22.98;;;12.65;;
26756;SDS011;23848;49.798;10.228;2024-03-08T07:34:30;24.27;;;14.60;;
26756;SDS011;23848;49.798;10.228;2024-03-08T07:37:00;23.25;;;13.75;;
26756;SDS011;23848;49.798;10.228;2024-03-08T07:39:34;27.10;;;13.85;;
26756;SDS011;23848;49.798;10.228;2024-03-08T07:42:05;25.48;;;13.93;;
26756;SDS011;23848;49.798;10.228;2024-03-08T07:44:34;23.55;;;13.88;;
26756;SDS011;23848;49.798;10.228;2024-03-08T07:47:03;26.52;;;14.32;;
26756;SDS011;23848;49.798;10.228;2024-03-08T07:49:33;25.48;;;13.73;;
26756;SDS011;23848;49.798;10.228;2024-03-08T07:52:02;29.35;;;13.63;;
26756;SDS011;23848;49.798;10.228;2024-03-08T08:07:49;22.67;;;12.82;;
26756;SDS011;23848;49.798;10.228;2024-03-08T08:10:30;24.85;;;13.25;;
26756;SDS011;23848;49.798;10.228;2024-03-08T08:12:59;26.45;;;15.13;;
26756;SDS011;23848;49.798;10.228;2024-03-08T08:15:30;23.30;;;12.63;;
26756;SDS011;23848;49.798;10.228;2024-03-08T08:17:59;21.35;;;11.98;;
26756;SDS011;23848;49.798;10.228;2024-03-08T08:20:30;22.02;;;12.52;;
26756;SDS011;23848;49.798;10.228;2024-03-08T08:23:00;24.77;;;13.70;;
26756;SDS011;23848;49.798;10.228;2024-03-08T08:25:29;23.02;;;13.35;;
26756;SDS011;23848;49.798;10.228;2024-03-08T08:28:01;25.10;;;13.48;;
26756;SDS011;23848;49.798;10.228;2024-03-08T08:30:30;25.08;;;12.75;;
26756;SDS011;23848;49.798;10.228;2024-03-08T08:33:00;23.98;;;12.68;;
26756;SDS011;23848;49.798;10.228;2024-03-08T08:35:29;23.60;;;13.27;;
26756;SDS011;23848;49.798;10.228;2024-03-08T08:37:57;22.88;;;11.75;;
26756;SDS011;23848;49.798;10.228;2024-03-08T08:40:27;23.55;;;12.65;;
26756;SDS011;23848;49.798;10.228;2024-03-08T08:42:58;23.40;;;13.32;;
26756;SDS011;23848;49.798;10.228;2024-03-08T08:45:27;21.60;;;13.40;;
26756;SDS011;23848;49.798;10.228;2024-03-08T08:47:57;21.20;;;12.15;;
26756;SDS011;23848;49.798;10.228;2024-03-08T08:50:27;24.10;;;12.88;;
26756;SDS011;23848;49.798;10.228;2024-03-08T08:52:55;22.20;;;12.15;;
26756;SDS011;23848;49.798;10.228;2024-03-08T08:55:24;24.08;;;12.57;;
26756;SDS011;23848;49.798;10.228;2024-03-08T08:57:55;21.30;;;12.35;;
26756;SDS011;23848;49.798;10.228;2024-03-08T09:00:23;20.92;;;12.05;;
26756;SDS011;23848;49.798;10.228;2024-03-08T09:02:54;19.08;;;10.80;;
26756;SDS011;23848;49.798;10.228;2024-03-08T09:05:25;23.55;;;11.80;;
26756;SDS011;23848;49.798;10.228;2024-03-08T09:07:53;20.00;;;11.63;;
26756;SDS011;23848;49.798;10.228;2024-03-08T09:10:22;23.35;;;11.85;;
26756;SDS011;23848;49.798;10.228;2024-03-08T09:12:57;21.63;;;10.80;;
26756;SDS011;23848;49.798;10.228;2024-03-08T09:15:26;18.60;;;11.23;;
26756;SDS011;23848;49.798;10.228;2024-03-08T09:17:55;15.30;;;9.45;;
26756;SDS011;23848;49.798;10.228;2024-03-08T09:20:26;18.70;;;10.05;;
26756;SDS011;23848;49.798;10.228;2024-03-08T09:22:55;18.23;;;11.18;;
26756;SDS011;23848;49.798;10.228;2024-03-08T09:25:23;19.60;;;11.25;;
26756;SDS011;23848;49.798;10.228;2024-03-08T09:27:52;27.23;;;11.10;;
26756;SDS011;23848;49.798;10.228;2024-03-08T09:30:22;18.25;;;10.57;;
26756;SDS011;23848;49.798;10.228;2024-03-08T09:32:51;16.88;;;10.00;;
26756;SDS011;23848;49.798;10.228;2024-03-08T09:35:22;16.58;;;10.20;;
26756;SDS011;23848;49.798;10.228;2024-03-08T09:37:51;19.00;;;11.70;;
26756;SDS011;23848;49.798;10.228;2024-03-08T09:40:20;18.23;;;10.68;;
26756;SDS011;23848;49.798;10.228;2024-03-08T09:42:50;18.02;;;10.23;;
26756;SDS011;23848;49.798;10.228;2024-03-08T09:45:20;19.48;;;9.82;;
26756;SDS011;23848;49.798;10.228;2024-03-08T09:47:51;18.85;;;10.55;;
26756;SDS011;23848;49.798;10.228;2024-03-08T09:50:26;17.00;;;9.23;;
26756;SDS011;23848;49.798;10.228;2024-03-08T09:52:56;17.60;;;10.13;;
26756;SDS011;23848;49.798;10.228;2024-03-08T09:55:25;16.80;;;10.70;;
26756;SDS011;23848;49.798;10.228;2024-03-08T09:57:58;20.52;;;11.10;;
26756;SDS011;23848;49.798;10.228;2024-03-08T10:00:45;19.15;;;10.15;;
26756;SDS011;23848;49.798;10.228;2024-03-08T10:03:15;18.83;;;9.88;;
26756;SDS011;23848;49.798;10.228;2024-03-08T10:05:43;18.48;;;10.68;;
26756;SDS011;23848;49.798;10.228;2024-03-08T10:08:12;15.38;;;9.23;;
26756;SDS011;23848;49.798;10.228;2024-03-08T10:10:41;18.58;;;10.18;;
26756;SDS011;23848;49.798;10.228;2024-03-08T10:13:11;16.48;;;10.20;;
26756;SDS011;23848;49.798;10.228;2024-03-08T10:15:40;17.65;;;9.98;;
26756;SDS011;23848;49.798;10.228;2024-03-08T10:18:09;18.17;;;10.20;;
26756;SDS011;23848;49.798;10.228;2024-03-08T10:20:40;20.13;;;10.45;;
26756;SDS011;23848;49.798;10.228;2024-03-08T10:23:09;17.70;;;10.55;;
26756;SDS011;23848;49.798;10.228;2024-03-08T10:25:39;18.52;;;10.70;;
26756;SDS011;23848;49.798;10.228;2024-03-08T10:28:08;18.55;;;9.73;;
26756;SDS011;23848;49.798;10.228;2024-03-08T10:30:37;16.00;;;9.30;;
26756;SDS011;23848;49.798;10.228;2024-03-08T10:33:06;17.88;;;9.57;;
26756;SDS011;23848;49.798;10.228;2024-03-08T10:35:34;15.55;;;9.18;;
26756;SDS011;23848;49.798;10.228;2024-03-08T10:38:04;16.20;;;9.05;;
26756;SDS011;23848;49.798;10.228;2024-03-08T10:40:34;14.43;;;7.90;;
26756;SDS011;23848;49.798;10.228;2024-03-08T10:43:04;14.95;;;9.15;;
26756;SDS011;23848;49.798;10.228;2024-03-08T10:45:35;15.13;;;9.68;;
26756;SDS011;23848;49.798;10.228;2024-03-08T10:48:04;15.80;;;9.63;;
26756;SDS011;23848;49.798;10.228;2024-03-08T10:50:37;16.60;;;9.00;;
26756;SDS011;23848;49.798;10.228;2024-03-08T10:53:07;16.90;;;9.55;;
26756;SDS011;23848;49.798;10.228;2024-03-08T10:55:38;15.57;;;9.15;;
26756;SDS011;23848;49.798;10.228;2024-03-08T10:58:08;18.20;;;10.07;;
26756;SDS011;23848;49.798;10.228;2024-03-08T11:00:37;16.27;;;10.40;;
26756;SDS011;23848;49.798;10.228;2024-03-08T11:03:05;16.13;;;9.27;;
26756;SDS011;23848;49.798;10.228;2024-03-08T11:05:37;19.60;;;10.15;;
26756;SDS011;23848;49.798;10.228;2024-03-08T11:08:18;15.93;;;8.27;;
26756;SDS011;23848;49.798;10.228;2024-03-08T11:10:47;15.50;;;9.38;;
26756;SDS011;23848;49.798;10.228;2024-03-08T11:13:32;18.17;;;9.18;;
26756;SDS011;23848;49.798;10.228;2024-03-08T11:16:01;16.05;;;8.70;;
26756;SDS011;23848;49.798;10.228;2024-03-08T11:18:32;17.67;;;9.60;;
26756;SDS011;23848;49.798;10.228;2024-03-08T11:21:02;17.10;;;8.90;;
26756;SDS011;23848;49.798;10.228;2024-03-08T11:23:34;15.48;;;9.15;;
26756;SDS011;23848;49.798;10.228;2024-03-08T11:26:03;16.85;;;9.35;;
26756;SDS011;23848;49.798;10.228;2024-03-08T11:28:34;14.25;;;8.55;;
26756;SDS011;23848;49.798;10.228;2024-03-08T11:33:50;14.63;;;7.63;;
26756;SDS011;23848;49.798;10.228;2024-03-08T11:36:21;14.95;;;8.27;;
26756;SDS011;23848;49.798;10.228;2024-03-08T11:38:52;13.40;;;7.75;;
26756;SDS011;23848;49.798;10.228;2024-03-08T11:41:22;14.25;;;7.80;;
26756;SDS011;23848;49.798;10.228;2024-03-08T11:44:01;13.63;;;7.15;;
26756;SDS011;23848;49.798;10.228;2024-03-08T11:46:33;15.93;;;8.02;;
26756;SDS011;23848;49.798;10.228;2024-03-08T11:49:01;12.57;;;7.45;;
26756;SDS011;23848;49.798;10.228;2024-03-08T11:51:35;13.43;;;7.20;;
26756;SDS011;23848;49.798;10.228;2024-03-08T11:54:10;11.23;;;7.60;;
26756;SDS011;23848;49.798;10.228;2024-03-08T11:56:40;12.48;;;7.70;;
26756;SDS011;23848;49.798;10.228;2024-03-08T11:59:10;14.73;;;7.50;;
26756;SDS011;23848;49.798;10.228;2024-03-08T12:01:40;13.50;;;8.02;;
26756;SDS011;23848;49.798;10.228;2024-03-08T12:04:11;11.50;;;7.20;;
26756;SDS011;23848;49.798;10.228;2024-03-08T12:06:40;13.65;;;7.47;;
26756;SDS011;23848;49.798;10.228;2024-03-08T12:09:13;14.18;;;7.50;;
26756;SDS011;23848;49.798;10.228;2024-03-08T12:11:58;11.82;;;7.25;;
26756;SDS011;23848;49.798;10.228;2024-03-08T12:18:24;14.75;;;6.97;;
26756;SDS011;23848;49.798;10.228;2024-03-08T12:21:06;12.73;;;7.82;;
26756;SDS011;23848;49.798;10.228;2024-03-08T12:23:37;12.18;;;7.13;;
26756;SDS011;23848;49.798;10.228;2024-03-08T12:26:11;12.63;;;7.95;;
26756;SDS011;23848;49.798;10.228;2024-03-08T12:28:41;13.70;;;7.57;;
26756;SDS011;23848;49.798;10.228;2024-03-08T12:31:14;13.93;;;8.23;;
26756;SDS011;23848;49.798;10.228;2024-03-08T12:33:49;11.05;;;6.80;;
26756;SDS011;23848;49.798;10.228;2024-03-08T12:36:22;13.77;;;6.45;;
26756;SDS011;23848;49.798;10.228;2024-03-08T12:38:50;12.18;;;6.60;;
26756;SDS011;23848;49.798;10.228;2024-03-08T12:41:25;10.77;;;6.53;;
26756;SDS011;23848;49.798;10.228;2024-03-08T12:43:56;10.77;;;5.97;;
26756;SDS011;23848;49.798;10.228;2024-03-08T12:46:25;11.82;;;7.10;;
26756;SDS011;23848;49.798;10.228;2024-03-08T12:48:55;11.73;;;6.47;;
26756;SDS011;23848;49.798;10.228;2024-03-08T12:51:27;9.88;;;6.22;;
26756;SDS011;23848;49.798;10.228;2024-03-08T12:53:56;10.65;;;6.22;;
26756;SDS011;23848;49.798;10.228;2024-03-08T12:56:32;12.95;;;7.35;;
26756;SDS011;23848;49.798;10.228;2024-03-08T12:59:04;10.18;;;5.78;;
26756;SDS011;23848;49.798;10.228;2024-03-08T13:01:33;12.35;;;6.45;;
26756;SDS011;23848;49.798;10.228;2024-03-08T13:04:03;11.75;;;6.28;;
26756;SDS011;23848;49.798;10.228;2024-03-08T13:06:35;13.13;;;6.38;;
26756;SDS011;23848;49.798;10.228;2024-03-08T13:09:05;10.13;;;5.93;;
26756;SDS011;23848;49.798;10.228;2024-03-08T13:11:34;11.27;;;7.07;;
26756;SDS011;23848;49.798;10.228;2024-03-08T13:14:04;12.80;;;6.05;;
26756;SDS011;23848;49.798;10.228;2024-03-08T13:16:33;11.23;;;6.35;;
26756;SDS011;23848;49.798;10.228;2024-03-08T13:19:02;10.25;;;5.80;;
26756;SDS011;23848;49.798;10.228;2024-03-08T13:21:35;8.68;;;5.03;;
26756;SDS011;23848;49.798;10.228;2024-03-08T13:26:34;9.13;;;5.47;;
26756;SDS011;23848;49.798;10.228;2024-03-08T13:29:03;9.93;;;5.50;;
26756;SDS011;23848;49.798;10.228;2024-03-08T13:31:33;13.05;;;6.65;;
26756;SDS011;23848;49.798;10.228;2024-03-08T13:34:04;9.55;;;5.50;;
26756;SDS011;23848;49.798;10.228;2024-03-08T13:36:32;10.30;;;5.53;;
26756;SDS011;23848;49.798;10.228;2024-03-08T13:39:05;10.48;;;6.15;;
26756;SDS011;23848;49.798;10.228;2024-03-08T13:41:44;9.43;;;5.63;;
26756;SDS011;23848;49.798;10.228;2024-03-08T13:44:12;7.55;;;5.35;;
26756;SDS011;23848;49.798;10.228;2024-03-08T13:46:41;9.65;;;5.72;;
26756;SDS011;23848;49.798;10.228;2024-03-08T13:49:27;8.32;;;5.57;;
26756;SDS011;23848;49.798;10.228;2024-03-08T13:51:57;9.15;;;5.95;;
26756;SDS011;23848;49.798;10.228;2024-03-08T13:54:26;8.57;;;5.25;;
26756;SDS011;23848;49.798;10.228;2024-03-08T13:56:59;10.70;;;5.47;;
26756;SDS011;23848;49.798;10.228;2024-03-08T13:59:32;8.13;;;4.85;;
26756;SDS011;23848;49.798;10.228;2024-03-08T14:02:04;10.25;;;5.75;;
26756;SDS011;23848;49.798;10.228;2024-03-08T14:04:33;10.35;;;5.75;;
26756;SDS011;23848;49.798;10.228;2024-03-08T14:07:01;9.18;;;4.70;;
26756;SDS011;23848;49.798;10.228;2024-03-08T14:09:31;9.65;;;5.30;;
26756;SDS011;23848;49.798;10.228;2024-03-08T14:12:05;8.50;;;5.05;;
26756;SDS011;23848;49.798;10.228;2024-03-08T14:14:34;8.93;;;5.10;;
26756;SDS011;23848;49.798;10.228;2024-03-08T14:17:05;8.95;;;5.03;;
26756;SDS011;23848;49.798;10.228;2024-03-08T14:19:35;9.73;;;5.15;;
26756;SDS011;23848;49.798;10.228;2024-03-08T14:22:05;12.07;;;5.15;;
26756;SDS011;23848;49.798;10.228;2024-03-08T14:24:33;15.20;;;6.35;;
26756;SDS011;23848;49.798;10.228;2024-03-08T14:27:05;11.40;;;6.28;;
26756;SDS011;23848;49.798;10.228;2024-03-08T14:29:37;9.30;;;5.22;;
26756;SDS011;23848;49.798;10.228;2024-03-08T14:32:12;10.10;;;5.28;;
26756;SDS011;23848;49.798;10.228;2024-03-08T14:34:41;9.13;;;5.60;;
26756;SDS011;23848;49.798;10.228;2024-03-08T14:37:10;9.13;;;5.25;;
26756;SDS011;23848;49.798;10.228;2024-03-08T14:39:42;8.23;;;4.95;;
26756;SDS011;23848;49.798;10.228;2024-03-08T14:42:22;8.52;;;5.05;;
26756;SDS011;23848;49.798;10.228;2024-03-08T14:45:09;11.77;;;5.97;;
26756;SDS011;23848;49.798;10.228;2024-03-08T14:47:47;11.13;;;6.55;;
26756;SDS011;23848;49.798;10.228;2024-03-08T14:50:24;12.40;;;6.85;;
26756;SDS011;23848;49.798;10.228;2024-03-08T14:52:57;12.23;;;7.07;;
26756;SDS011;23848;49.798;10.228;2024-03-08T14:55:39;13.15;;;6.22;;
26756;SDS011;23848;49.798;10.228;2024-03-08T14:58:21;11.60;;;6.00;;
26756;SDS011;23848;49.798;10.228;2024-03-08T15:00:54;12.57;;;6.18;;